sensor_id;sensor_type;location;lat;lon;timestamp;temperature;humidity
19941;DHT22;10132;50.864;5.176;2023-04-19T00:01:59;10.60;99.90
19941;DHT22;10132;50.864;5.176;2023-04-19T00:04:01;10.80;99.90
19941;DHT22;10132;50.864;5.176;2023-04-19T00:06:03;10.80;99.90
19941;DHT22;10132;50.864;5.176;2023-04-19T00:08:07;10.80;99.90
19941;DHT22;10132;50.864;5.176;2023-04-19T00:10:09;10.70;99.90
19941;DHT22;10132;50.864;5.176;2023-04-19T00:12:11;10.80;99.90
19941;DHT22;10132;50.864;5.176;2023-04-19T00:14:13;10.80;99.90
19941;DHT22;10132;50.864;5.176;2023-04-19T00:16:15;10.70;99.90
19941;DHT22;10132;50.864;5.176;2023-04-19T00:18:19;10.60;99.90
19941;DHT22;10132;50.864;5.176;2023-04-19T00:20:21;10.80;99.90
19941;DHT22;10132;50.864;5.176;2023-04-19T00:22:23;10.70;99.90
19941;DHT22;10132;50.864;5.176;2023-04-19T00:24:25;10.80;99.90
19941;DHT22;10132;50.864;5.176;2023-04-19T00:26:26;10.80;99.90
19941;DHT22;10132;50.864;5.176;2023-04-19T00:28:28;10.80;99.90
19941;DHT22;10132;50.864;5.176;2023-04-19T00:30:30;10.90;99.90
19941;DHT22;10132;50.864;5.176;2023-04-19T00:32:32;11.00;99.90
19941;DHT22;10132;50.864;5.176;2023-04-19T00:34:36;11.10;99.90
19941;DHT22;10132;50.864;5.176;2023-04-19T00:36:38;11.10;99.90
19941;DHT22;10132;50.864;5.176;2023-04-19T00:38:39;11.10;99.90
19941;DHT22;10132;50.864;5.176;2023-04-19T00:40:41;11.10;99.90
19941;DHT22;10132;50.864;5.176;2023-04-19T00:42:43;11.10;99.90
19941;DHT22;10132;50.864;5.176;2023-04-19T00:44:45;11.20;99.90
19941;DHT22;10132;50.864;5.176;2023-04-19T00:46:47;11.20;99.90
19941;DHT22;10132;50.864;5.176;2023-04-19T00:48:49;11.20;99.90
19941;DHT22;10132;50.864;5.176;2023-04-19T00:50:53;11.30;99.90
19941;DHT22;10132;50.864;5.176;2023-04-19T00:52:55;11.30;99.90
19941;DHT22;10132;50.864;5.176;2023-04-19T00:54:58;11.20;99.90
19941;DHT22;10132;50.864;5.176;2023-04-19T00:57:00;11.20;99.90
19941;DHT22;10132;50.864;5.176;2023-04-19T00:59:02;11.20;99.90
19941;DHT22;10132;50.864;5.176;2023-04-19T01:01:04;11.10;99.90
19941;DHT22;10132;50.864;5.176;2023-04-19T01:03:06;11.10;99.90
19941;DHT22;10132;50.864;5.176;2023-04-19T01:05:09;11.00;99.90
19941;DHT22;10132;50.864;5.176;2023-04-19T01:07:12;11.00;99.90
19941;DHT22;10132;50.864;5.176;2023-04-19T01:09:14;11.10;99.90
19941;DHT22;10132;50.864;5.176;2023-04-19T01:11:16;11.10;99.90
19941;DHT22;10132;50.864;5.176;2023-04-19T01:13:18;11.10;99.90
19941;DHT22;10132;50.864;5.176;2023-04-19T01:15:20;11.10;99.90
19941;DHT22;10132;50.864;5.176;2023-04-19T01:17:23;11.20;99.90
19941;DHT22;10132;50.864;5.176;2023-04-19T01:19:25;11.20;99.90
19941;DHT22;10132;50.864;5.176;2023-04-19T01:21:26;11.20;99.90
19941;DHT22;10132;50.864;5.176;2023-04-19T01:23:30;11.30;99.90
19941;DHT22;10132;50.864;5.176;2023-04-19T01:25:32;11.30;99.90
19941;DHT22;10132;50.864;5.176;2023-04-19T01:27:34;11.30;99.90
19941;DHT22;10132;50.864;5.176;2023-04-19T01:29:36;11.30;99.90
19941;DHT22;10132;50.864;5.176;2023-04-19T01:31:38;11.30;99.90
19941;DHT22;10132;50.864;5.176;2023-04-19T01:33:40;11.20;99.90
19941;DHT22;10132;50.864;5.176;2023-04-19T01:35:42;11.20;99.90
19941;DHT22;10132;50.864;5.176;2023-04-19T01:37:44;11.20;99.90
19941;DHT22;10132;50.864;5.176;2023-04-19T01:39:47;11.20;99.90
19941;DHT22;10132;50.864;5.176;2023-04-19T01:41:49;11.30;99.90
19941;DHT22;10132;50.864;5.176;2023-04-19T01:43:51;11.30;99.90
19941;DHT22;10132;50.864;5.176;2023-04-19T01:45:53;11.30;99.90
19941;DHT22;10132;50.864;5.176;2023-04-19T01:47:55;11.30;99.90
19941;DHT22;10132;50.864;5.176;2023-04-19T01:49:58;11.30;99.90
19941;DHT22;10132;50.864;5.176;2023-04-19T01:52:00;11.30;99.90
19941;DHT22;10132;50.864;5.176;2023-04-19T01:54:02;11.30;99.90
19941;DHT22;10132;50.864;5.176;2023-04-19T01:56:06;11.20;99.90
19941;DHT22;10132;50.864;5.176;2023-04-19T01:58:08;11.30;99.90
19941;DHT22;10132;50.864;5.176;2023-04-19T02:00:11;11.30;99.90
19941;DHT22;10132;50.864;5.176;2023-04-19T02:02:13;11.30;99.90
19941;DHT22;10132;50.864;5.176;2023-04-19T02:04:15;11.20;99.90
19941;DHT22;10132;50.864;5.176;2023-04-19T02:06:17;11.20;99.90
19941;DHT22;10132;50.864;5.176;2023-04-19T02:08:19;11.30;99.90
19941;DHT22;10132;50.864;5.176;2023-04-19T02:10:21;11.20;99.90
19941;DHT22;10132;50.864;5.176;2023-04-19T02:12:25;11.20;99.90
19941;DHT22;10132;50.864;5.176;2023-04-19T02:14:28;11.20;99.90
19941;DHT22;10132;50.864;5.176;2023-04-19T02:16:30;11.20;99.90
19941;DHT22;10132;50.864;5.176;2023-04-19T02:18:32;11.10;99.90
19941;DHT22;10132;50.864;5.176;2023-04-19T02:20:38;11.20;99.90
19941;DHT22;10132;50.864;5.176;2023-04-19T02:22:40;11.20;99.90
19941;DHT22;10132;50.864;5.176;2023-04-19T02:24:43;11.20;99.90
19941;DHT22;10132;50.864;5.176;2023-04-19T02:26:45;11.20;99.90
19941;DHT22;10132;50.864;5.176;2023-04-19T02:28:49;11.20;99.90
19941;DHT22;10132;50.864;5.176;2023-04-19T02:30:51;11.20;99.90
19941;DHT22;10132;50.864;5.176;2023-04-19T02:32:53;11.20;99.90
19941;DHT22;10132;50.864;5.176;2023-04-19T02:34:55;11.20;99.90
19941;DHT22;10132;50.864;5.176;2023-04-19T02:36:57;11.20;99.90
19941;DHT22;10132;50.864;5.176;2023-04-19T02:38:59;11.20;99.90
19941;DHT22;10132;50.864;5.176;2023-04-19T02:41:01;11.20;99.90
19941;DHT22;10132;50.864;5.176;2023-04-19T02:43:03;11.20;99.90
19941;DHT22;10132;50.864;5.176;2023-04-19T02:45:08;11.20;99.90
19941;DHT22;10132;50.864;5.176;2023-04-19T02:47:10;11.20;99.90
19941;DHT22;10132;50.864;5.176;2023-04-19T02:49:12;11.20;99.90
19941;DHT22;10132;50.864;5.176;2023-04-19T02:51:14;11.20;99.90
19941;DHT22;10132;50.864;5.176;2023-04-19T02:53:17;11.20;99.90
19941;DHT22;10132;50.864;5.176;2023-04-19T02:55:19;11.20;99.90
19941;DHT22;10132;50.864;5.176;2023-04-19T02:57:21;11.20;99.90
19941;DHT22;10132;50.864;5.176;2023-04-19T02:59:23;11.20;99.90
19941;DHT22;10132;50.864;5.176;2023-04-19T03:01:26;11.20;99.90
19941;DHT22;10132;50.864;5.176;2023-04-19T03:03:28;11.10;99.90
19941;DHT22;10132;50.864;5.176;2023-04-19T03:05:30;11.20;99.90
19941;DHT22;10132;50.864;5.176;2023-04-19T03:07:32;11.20;99.90
19941;DHT22;10132;50.864;5.176;2023-04-19T03:09:34;11.20;99.90
19941;DHT22;10132;50.864;5.176;2023-04-19T03:11:36;11.20;99.90
19941;DHT22;10132;50.864;5.176;2023-04-19T03:13:38;11.20;99.90
19941;DHT22;10132;50.864;5.176;2023-04-19T03:15:40;11.30;99.90
19941;DHT22;10132;50.864;5.176;2023-04-19T03:17:43;11.30;99.90
19941;DHT22;10132;50.864;5.176;2023-04-19T03:19:45;11.30;99.90
19941;DHT22;10132;50.864;5.176;2023-04-19T03:21:47;11.30;99.90
19941;DHT22;10132;50.864;5.176;2023-04-19T03:23:49;11.30;99.90
19941;DHT22;10132;50.864;5.176;2023-04-19T03:25:51;11.40;99.90
19941;DHT22;10132;50.864;5.176;2023-04-19T03:27:53;11.30;99.90
19941;DHT22;10132;50.864;5.176;2023-04-19T03:29:55;11.30;99.90
19941;DHT22;10132;50.864;5.176;2023-04-19T03:31:57;11.30;99.90
19941;DHT22;10132;50.864;5.176;2023-04-19T03:34:01;11.20;99.90
19941;DHT22;10132;50.864;5.176;2023-04-19T03:36:03;11.10;99.90
19941;DHT22;10132;50.864;5.176;2023-04-19T03:38:05;11.00;99.90
19941;DHT22;10132;50.864;5.176;2023-04-19T03:40:07;10.90;99.90
19941;DHT22;10132;50.864;5.176;2023-04-19T03:42:10;10.80;99.90
19941;DHT22;10132;50.864;5.176;2023-04-19T03:44:11;10.70;99.90
19941;DHT22;10132;50.864;5.176;2023-04-19T03:46:13;10.60;99.90
19941;DHT22;10132;50.864;5.176;2023-04-19T03:48:15;10.50;99.90
19941;DHT22;10132;50.864;5.176;2023-04-19T03:50:19;10.40;99.90
19941;DHT22;10132;50.864;5.176;2023-04-19T03:52:21;10.40;99.90
19941;DHT22;10132;50.864;5.176;2023-04-19T03:54:22;10.40;99.90
19941;DHT22;10132;50.864;5.176;2023-04-19T03:56:24;10.40;99.90
19941;DHT22;10132;50.864;5.176;2023-04-19T03:58:26;10.30;99.90
19941;DHT22;10132;50.864;5.176;2023-04-19T04:00:28;10.30;99.90
19941;DHT22;10132;50.864;5.176;2023-04-19T04:02:30;10.20;99.90
19941;DHT22;10132;50.864;5.176;2023-04-19T04:04:32;10.20;99.90
19941;DHT22;10132;50.864;5.176;2023-04-19T04:06:36;10.20;99.90
19941;DHT22;10132;50.864;5.176;2023-04-19T04:08:38;10.20;99.90
19941;DHT22;10132;50.864;5.176;2023-04-19T04:10:40;10.20;99.90
19941;DHT22;10132;50.864;5.176;2023-04-19T04:12:42;10.20;99.90
19941;DHT22;10132;50.864;5.176;2023-04-19T04:14:44;10.20;99.90
19941;DHT22;10132;50.864;5.176;2023-04-19T04:16:45;10.20;99.90
19941;DHT22;10132;50.864;5.176;2023-04-19T04:18:47;10.10;99.90
19941;DHT22;10132;50.864;5.176;2023-04-19T04:20:49;10.10;99.90
19941;DHT22;10132;50.864;5.176;2023-04-19T04:22:53;10.00;99.90
19941;DHT22;10132;50.864;5.176;2023-04-19T04:24:55;10.00;99.90
19941;DHT22;10132;50.864;5.176;2023-04-19T04:26:57;10.00;99.90
19941;DHT22;10132;50.864;5.176;2023-04-19T04:29:00;9.90;99.90
19941;DHT22;10132;50.864;5.176;2023-04-19T04:31:02;10.00;99.90
19941;DHT22;10132;50.864;5.176;2023-04-19T04:33:05;10.00;99.90
19941;DHT22;10132;50.864;5.176;2023-04-19T04:35:09;10.00;99.90
19941;DHT22;10132;50.864;5.176;2023-04-19T04:37:11;10.00;99.90
19941;DHT22;10132;50.864;5.176;2023-04-19T04:39:15;9.90;99.90
19941;DHT22;10132;50.864;5.176;2023-04-19T04:41:17;9.90;99.90
19941;DHT22;10132;50.864;5.176;2023-04-19T04:43:20;10.00;99.90
19941;DHT22;10132;50.864;5.176;2023-04-19T04:45:23;10.00;99.90
19941;DHT22;10132;50.864;5.176;2023-04-19T04:47:29;10.00;99.90
19941;DHT22;10132;50.864;5.176;2023-04-19T04:49:31;10.10;99.90
19941;DHT22;10132;50.864;5.176;2023-04-19T04:51:33;10.10;99.90
19941;DHT22;10132;50.864;5.176;2023-04-19T04:53:36;10.20;99.90
19941;DHT22;10132;50.864;5.176;2023-04-19T04:55:40;10.20;99.90
19941;DHT22;10132;50.864;5.176;2023-04-19T04:57:42;10.30;99.90
19941;DHT22;10132;50.864;5.176;2023-04-19T04:59:44;10.40;99.90
19941;DHT22;10132;50.864;5.176;2023-04-19T05:01:47;10.40;99.90
19941;DHT22;10132;50.864;5.176;2023-04-19T05:03:49;10.50;99.90
19941;DHT22;10132;50.864;5.176;2023-04-19T05:05:51;10.60;99.90
19941;DHT22;10132;50.864;5.176;2023-04-19T05:07:53;10.60;99.90
19941;DHT22;10132;50.864;5.176;2023-04-19T05:09:55;10.70;99.90
19941;DHT22;10132;50.864;5.176;2023-04-19T05:11:58;10.70;99.90
19941;DHT22;10132;50.864;5.176;2023-04-19T05:14:02;10.80;99.90
19941;DHT22;10132;50.864;5.176;2023-04-19T05:16:04;10.80;99.90
19941;DHT22;10132;50.864;5.176;2023-04-19T05:18:06;10.90;99.90
19941;DHT22;10132;50.864;5.176;2023-04-19T05:20:09;11.00;99.90
19941;DHT22;10132;50.864;5.176;2023-04-19T05:22:11;11.00;99.90
19941;DHT22;10132;50.864;5.176;2023-04-19T05:24:13;11.00;99.90
19941;DHT22;10132;50.864;5.176;2023-04-19T05:26:15;11.10;99.90
19941;DHT22;10132;50.864;5.176;2023-04-19T05:28:20;11.10;99.90
19941;DHT22;10132;50.864;5.176;2023-04-19T05:30:22;11.10;99.90
19941;DHT22;10132;50.864;5.176;2023-04-19T05:32:24;11.10;99.90
19941;DHT22;10132;50.864;5.176;2023-04-19T05:34:27;11.10;99.90
19941;DHT22;10132;50.864;5.176;2023-04-19T05:36:29;11.10;99.90
19941;DHT22;10132;50.864;5.176;2023-04-19T05:38:31;11.20;99.90
19941;DHT22;10132;50.864;5.176;2023-04-19T05:40:33;11.20;99.90
19941;DHT22;10132;50.864;5.176;2023-04-19T05:42:36;11.20;99.90
19941;DHT22;10132;50.864;5.176;2023-04-19T05:44:40;11.20;99.90
19941;DHT22;10132;50.864;5.176;2023-04-19T05:46:42;11.30;99.90
19941;DHT22;10132;50.864;5.176;2023-04-19T05:48:44;11.30;99.90
19941;DHT22;10132;50.864;5.176;2023-04-19T05:50:46;11.30;99.90
19941;DHT22;10132;50.864;5.176;2023-04-19T05:52:47;11.40;99.90
19941;DHT22;10132;50.864;5.176;2023-04-19T05:54:50;11.40;99.90
19941;DHT22;10132;50.864;5.176;2023-04-19T05:56:51;11.50;99.90
19941;DHT22;10132;50.864;5.176;2023-04-19T05:58:53;11.60;99.90
19941;DHT22;10132;50.864;5.176;2023-04-19T06:00:57;11.60;99.90
19941;DHT22;10132;50.864;5.176;2023-04-19T06:02:59;11.60;99.90
19941;DHT22;10132;50.864;5.176;2023-04-19T06:05:01;11.60;99.90
19941;DHT22;10132;50.864;5.176;2023-04-19T06:07:03;11.60;99.90
19941;DHT22;10132;50.864;5.176;2023-04-19T06:09:05;11.60;99.90
19941;DHT22;10132;50.864;5.176;2023-04-19T06:11:07;11.60;99.90
19941;DHT22;10132;50.864;5.176;2023-04-19T06:13:09;11.70;99.90
19941;DHT22;10132;50.864;5.176;2023-04-19T06:15:11;11.80;99.90
19941;DHT22;10132;50.864;5.176;2023-04-19T06:17:14;11.90;99.90
19941;DHT22;10132;50.864;5.176;2023-04-19T06:19:17;11.90;99.90
19941;DHT22;10132;50.864;5.176;2023-04-19T06:21:18;12.00;99.90
19941;DHT22;10132;50.864;5.176;2023-04-19T06:23:20;12.00;99.90
19941;DHT22;10132;50.864;5.176;2023-04-19T06:25:23;12.10;99.90
19941;DHT22;10132;50.864;5.176;2023-04-19T06:27:25;12.10;99.90
19941;DHT22;10132;50.864;5.176;2023-04-19T06:29:27;12.10;99.90
19941;DHT22;10132;50.864;5.176;2023-04-19T06:31:30;12.20;99.90
19941;DHT22;10132;50.864;5.176;2023-04-19T06:33:34;12.30;99.90
19941;DHT22;10132;50.864;5.176;2023-04-19T06:35:36;12.30;99.90
19941;DHT22;10132;50.864;5.176;2023-04-19T06:37:38;12.40;99.90
19941;DHT22;10132;50.864;5.176;2023-04-19T06:39:39;12.50;99.90
19941;DHT22;10132;50.864;5.176;2023-04-19T06:41:41;12.60;99.90
19941;DHT22;10132;50.864;5.176;2023-04-19T06:43:43;12.70;99.90
19941;DHT22;10132;50.864;5.176;2023-04-19T06:45:45;12.70;99.90
19941;DHT22;10132;50.864;5.176;2023-04-19T06:47:47;12.80;99.90
19941;DHT22;10132;50.864;5.176;2023-04-19T06:49:51;13.00;99.90
19941;DHT22;10132;50.864;5.176;2023-04-19T06:51:53;13.00;99.90
19941;DHT22;10132;50.864;5.176;2023-04-19T06:53:55;13.10;99.90
19941;DHT22;10132;50.864;5.176;2023-04-19T06:55:58;13.10;99.90
19941;DHT22;10132;50.864;5.176;2023-04-19T06:58:01;13.20;99.90
19941;DHT22;10132;50.864;5.176;2023-04-19T07:00:04;13.20;99.90
19941;DHT22;10132;50.864;5.176;2023-04-19T07:02:07;13.40;99.90
19941;DHT22;10132;50.864;5.176;2023-04-19T07:04:09;13.40;99.90
19941;DHT22;10132;50.864;5.176;2023-04-19T07:06:13;13.50;99.90
19941;DHT22;10132;50.864;5.176;2023-04-19T07:08:15;13.60;99.90
19941;DHT22;10132;50.864;5.176;2023-04-19T07:10:17;13.60;99.90
19941;DHT22;10132;50.864;5.176;2023-04-19T07:12:19;13.70;99.90
19941;DHT22;10132;50.864;5.176;2023-04-19T07:14:21;13.70;99.90
19941;DHT22;10132;50.864;5.176;2023-04-19T07:16:23;13.70;99.90
19941;DHT22;10132;50.864;5.176;2023-04-19T07:18:25;13.70;99.90
19941;DHT22;10132;50.864;5.176;2023-04-19T07:20:27;13.80;99.90
19941;DHT22;10132;50.864;5.176;2023-04-19T07:22:32;13.90;99.90
19941;DHT22;10132;50.864;5.176;2023-04-19T07:24:34;14.20;99.90
19941;DHT22;10132;50.864;5.176;2023-04-19T07:26:36;14.50;99.90
19941;DHT22;10132;50.864;5.176;2023-04-19T07:28:39;14.70;99.90
19941;DHT22;10132;50.864;5.176;2023-04-19T07:30:41;14.60;99.90
19941;DHT22;10132;50.864;5.176;2023-04-19T07:32:45;14.60;99.90
19941;DHT22;10132;50.864;5.176;2023-04-19T07:34:47;14.60;99.90
19941;DHT22;10132;50.864;5.176;2023-04-19T07:36:51;14.70;99.90
19941;DHT22;10132;50.864;5.176;2023-04-19T07:38:54;14.80;99.90
19941;DHT22;10132;50.864;5.176;2023-04-19T07:40:57;14.80;99.90
19941;DHT22;10132;50.864;5.176;2023-04-19T07:42:58;14.70;99.90
19941;DHT22;10132;50.864;5.176;2023-04-19T07:45:00;14.70;99.90
19941;DHT22;10132;50.864;5.176;2023-04-19T07:47:03;14.60;99.90
19941;DHT22;10132;50.864;5.176;2023-04-19T07:49:05;14.60;99.90
19941;DHT22;10132;50.864;5.176;2023-04-19T07:51:08;14.80;99.90
19941;DHT22;10132;50.864;5.176;2023-04-19T07:53:10;15.20;99.90
19941;DHT22;10132;50.864;5.176;2023-04-19T07:55:14;15.40;99.90
19941;DHT22;10132;50.864;5.176;2023-04-19T07:57:16;15.30;99.90
19941;DHT22;10132;50.864;5.176;2023-04-19T07:59:18;15.40;99.90
19941;DHT22;10132;50.864;5.176;2023-04-19T08:01:20;15.10;99.90
19941;DHT22;10132;50.864;5.176;2023-04-19T08:03:22;14.80;99.90
19941;DHT22;10132;50.864;5.176;2023-04-19T08:05:24;14.90;99.90
19941;DHT22;10132;50.864;5.176;2023-04-19T08:07:26;15.20;99.90
19941;DHT22;10132;50.864;5.176;2023-04-19T08:09:28;15.40;99.90
19941;DHT22;10132;50.864;5.176;2023-04-19T08:11:32;15.50;99.90
19941;DHT22;10132;50.864;5.176;2023-04-19T08:13:34;15.70;99.90
19941;DHT22;10132;50.864;5.176;2023-04-19T08:15:35;15.80;99.90
19941;DHT22;10132;50.864;5.176;2023-04-19T08:17:39;15.90;99.90
19941;DHT22;10132;50.864;5.176;2023-04-19T08:19:42;16.00;99.90
19941;DHT22;10132;50.864;5.176;2023-04-19T08:21:44;16.00;99.90
19941;DHT22;10132;50.864;5.176;2023-04-19T08:23:46;16.10;99.90
19941;DHT22;10132;50.864;5.176;2023-04-19T08:25:48;16.10;99.90
19941;DHT22;10132;50.864;5.176;2023-04-19T08:27:51;16.00;99.90
19941;DHT22;10132;50.864;5.176;2023-04-19T08:29:53;16.00;99.90
19941;DHT22;10132;50.864;5.176;2023-04-19T08:31:55;15.90;99.90
19941;DHT22;10132;50.864;5.176;2023-04-19T08:33:57;16.00;99.90
19941;DHT22;10132;50.864;5.176;2023-04-19T08:36:00;15.90;99.90
19941;DHT22;10132;50.864;5.176;2023-04-19T08:38:02;15.70;99.90
19941;DHT22;10132;50.864;5.176;2023-04-19T08:40:05;15.70;99.90
19941;DHT22;10132;50.864;5.176;2023-04-19T08:42:08;16.00;99.90
19941;DHT22;10132;50.864;5.176;2023-04-19T08:44:12;16.20;99.90
19941;DHT22;10132;50.864;5.176;2023-04-19T08:46:15;16.50;99.90
19941;DHT22;10132;50.864;5.176;2023-04-19T08:48:18;16.60;99.90
19941;DHT22;10132;50.864;5.176;2023-04-19T08:50:20;16.70;99.90
19941;DHT22;10132;50.864;5.176;2023-04-19T08:52:23;16.60;99.90
19941;DHT22;10132;50.864;5.176;2023-04-19T08:54:25;16.40;99.90
19941;DHT22;10132;50.864;5.176;2023-04-19T08:56:30;16.30;99.90
19941;DHT22;10132;50.864;5.176;2023-04-19T08:58:32;16.20;99.90
19941;DHT22;10132;50.864;5.176;2023-04-19T09:00:37;16.30;99.90
19941;DHT22;10132;50.864;5.176;2023-04-19T09:02:44;16.60;99.90
19941;DHT22;10132;50.864;5.176;2023-04-19T09:04:47;16.70;99.90
19941;DHT22;10132;50.864;5.176;2023-04-19T09:06:49;16.70;99.90
19941;DHT22;10132;50.864;5.176;2023-04-19T09:08:51;16.60;99.90
19941;DHT22;10132;50.864;5.176;2023-04-19T09:10:59;16.50;99.90
19941;DHT22;10132;50.864;5.176;2023-04-19T09:13:03;16.60;99.90
19941;DHT22;10132;50.864;5.176;2023-04-19T09:15:06;16.70;99.90
19941;DHT22;10132;50.864;5.176;2023-04-19T09:17:15;16.80;99.90
19941;DHT22;10132;50.864;5.176;2023-04-19T09:19:17;16.90;99.90
19941;DHT22;10132;50.864;5.176;2023-04-19T09:21:27;16.80;99.90
19941;DHT22;10132;50.864;5.176;2023-04-19T09:23:29;16.70;99.90
19941;DHT22;10132;50.864;5.176;2023-04-19T09:25:31;16.90;99.90
19941;DHT22;10132;50.864;5.176;2023-04-19T09:27:36;16.80;99.90
19941;DHT22;10132;50.864;5.176;2023-04-19T09:29:38;16.90;99.90
19941;DHT22;10132;50.864;5.176;2023-04-19T09:31:40;16.90;99.90
19941;DHT22;10132;50.864;5.176;2023-04-19T09:34:11;16.80;99.90
19941;DHT22;10132;50.864;5.176;2023-04-19T09:36:26;16.70;99.90
19941;DHT22;10132;50.864;5.176;2023-04-19T09:38:28;16.70;99.90
19941;DHT22;10132;50.864;5.176;2023-04-19T09:40:30;17.10;99.90
19941;DHT22;10132;50.864;5.176;2023-04-19T09:42:44;17.60;99.90
19941;DHT22;10132;50.864;5.176;2023-04-19T09:44:56;17.80;99.90
19941;DHT22;10132;50.864;5.176;2023-04-19T09:46:58;17.80;99.90
19941;DHT22;10132;50.864;5.176;2023-04-19T09:49:16;17.90;99.90
19941;DHT22;10132;50.864;5.176;2023-04-19T09:51:19;18.20;99.90
19941;DHT22;10132;50.864;5.176;2023-04-19T09:53:23;18.50;99.90
19941;DHT22;10132;50.864;5.176;2023-04-19T09:55:25;18.70;99.90
19941;DHT22;10132;50.864;5.176;2023-04-19T09:57:27;18.50;99.90
19941;DHT22;10132;50.864;5.176;2023-04-19T09:59:30;18.20;99.90
19941;DHT22;10132;50.864;5.176;2023-04-19T10:01:34;18.10;99.90
19941;DHT22;10132;50.864;5.176;2023-04-19T10:03:37;18.10;99.90
19941;DHT22;10132;50.864;5.176;2023-04-19T10:05:41;18.30;99.90
19941;DHT22;10132;50.864;5.176;2023-04-19T10:07:43;18.60;99.90
19941;DHT22;10132;50.864;5.176;2023-04-19T10:09:46;18.70;99.90
19941;DHT22;10132;50.864;5.176;2023-04-19T10:11:50;18.90;99.90
19941;DHT22;10132;50.864;5.176;2023-04-19T10:13:56;19.00;99.90
19941;DHT22;10132;50.864;5.176;2023-04-19T10:15:59;19.00;99.90
19941;DHT22;10132;50.864;5.176;2023-04-19T10:18:01;19.20;99.90
19941;DHT22;10132;50.864;5.176;2023-04-19T10:20:06;19.00;99.90
19941;DHT22;10132;50.864;5.176;2023-04-19T10:22:11;18.90;99.90
19941;DHT22;10132;50.864;5.176;2023-04-19T10:24:14;18.70;99.90
19941;DHT22;10132;50.864;5.176;2023-04-19T10:26:18;18.90;99.90
19941;DHT22;10132;50.864;5.176;2023-04-19T10:28:20;18.90;99.90
19941;DHT22;10132;50.864;5.176;2023-04-19T10:30:23;18.60;99.90
19941;DHT22;10132;50.864;5.176;2023-04-19T10:32:27;18.40;99.90
19941;DHT22;10132;50.864;5.176;2023-04-19T10:34:36;18.40;99.90
19941;DHT22;10132;50.864;5.176;2023-04-19T10:36:38;18.40;99.90
19941;DHT22;10132;50.864;5.176;2023-04-19T10:38:43;18.00;99.90
19941;DHT22;10132;50.864;5.176;2023-04-19T10:40:57;17.40;99.90
19941;DHT22;10132;50.864;5.176;2023-04-19T10:43:25;17.30;99.90
19941;DHT22;10132;50.864;5.176;2023-04-19T10:45:33;17.00;99.90
19941;DHT22;10132;50.864;5.176;2023-04-19T10:47:43;16.80;99.90
19941;DHT22;10132;50.864;5.176;2023-04-19T10:49:45;17.10;99.90
19941;DHT22;10132;50.864;5.176;2023-04-19T10:51:49;17.00;99.90
19941;DHT22;10132;50.864;5.176;2023-04-19T10:53:55;17.10;99.90
19941;DHT22;10132;50.864;5.176;2023-04-19T10:55:58;17.20;99.90
19941;DHT22;10132;50.864;5.176;2023-04-19T10:58:01;17.60;99.90
19941;DHT22;10132;50.864;5.176;2023-04-19T11:00:19;18.00;99.90
19941;DHT22;10132;50.864;5.176;2023-04-19T11:02:27;18.20;99.90
19941;DHT22;10132;50.864;5.176;2023-04-19T11:04:57;18.60;99.90
19941;DHT22;10132;50.864;5.176;2023-04-19T11:07:01;19.10;99.90
19941;DHT22;10132;50.864;5.176;2023-04-19T11:09:05;19.00;99.90
19941;DHT22;10132;50.864;5.176;2023-04-19T11:11:09;19.30;99.90
19941;DHT22;10132;50.864;5.176;2023-04-19T11:13:11;19.30;99.90
19941;DHT22;10132;50.864;5.176;2023-04-19T11:15:14;19.40;99.90
19941;DHT22;10132;50.864;5.176;2023-04-19T11:17:17;19.60;99.90
19941;DHT22;10132;50.864;5.176;2023-04-19T11:19:20;19.40;99.90
19941;DHT22;10132;50.864;5.176;2023-04-19T11:21:22;19.50;99.90
19941;DHT22;10132;50.864;5.176;2023-04-19T11:23:24;19.50;99.90
19941;DHT22;10132;50.864;5.176;2023-04-19T11:25:28;19.60;99.90
19941;DHT22;10132;50.864;5.176;2023-04-19T11:27:31;19.40;99.90
19941;DHT22;10132;50.864;5.176;2023-04-19T11:29:33;19.30;99.90
19941;DHT22;10132;50.864;5.176;2023-04-19T11:31:36;19.10;99.90
19941;DHT22;10132;50.864;5.176;2023-04-19T11:33:38;19.20;99.90
19941;DHT22;10132;50.864;5.176;2023-04-19T11:35:40;19.30;99.90
19941;DHT22;10132;50.864;5.176;2023-04-19T11:37:45;19.60;99.90
19941;DHT22;10132;50.864;5.176;2023-04-19T11:39:47;19.90;99.90
19941;DHT22;10132;50.864;5.176;2023-04-19T11:41:50;19.80;99.90
19941;DHT22;10132;50.864;5.176;2023-04-19T11:43:52;19.60;99.90
19941;DHT22;10132;50.864;5.176;2023-04-19T11:45:54;19.30;99.90
19941;DHT22;10132;50.864;5.176;2023-04-19T11:47:56;19.30;99.90
19941;DHT22;10132;50.864;5.176;2023-04-19T11:50:31;19.30;99.90
19941;DHT22;10132;50.864;5.176;2023-04-19T11:52:34;19.50;99.90
19941;DHT22;10132;50.864;5.176;2023-04-19T11:54:36;19.50;99.90
19941;DHT22;10132;50.864;5.176;2023-04-19T11:57:02;19.60;99.90
19941;DHT22;10132;50.864;5.176;2023-04-19T11:59:09;20.00;99.90
19941;DHT22;10132;50.864;5.176;2023-04-19T12:01:12;20.00;99.90
19941;DHT22;10132;50.864;5.176;2023-04-19T12:03:15;19.70;99.90
19941;DHT22;10132;50.864;5.176;2023-04-19T12:05:17;19.50;99.90
19941;DHT22;10132;50.864;5.176;2023-04-19T12:07:19;19.60;99.90
19941;DHT22;10132;50.864;5.176;2023-04-19T12:09:21;19.70;99.90
19941;DHT22;10132;50.864;5.176;2023-04-19T12:11:24;19.80;99.90
19941;DHT22;10132;50.864;5.176;2023-04-19T12:13:29;19.80;99.90
19941;DHT22;10132;50.864;5.176;2023-04-19T12:15:41;19.80;99.90
19941;DHT22;10132;50.864;5.176;2023-04-19T12:17:56;20.10;99.90
19941;DHT22;10132;50.864;5.176;2023-04-19T12:19:58;20.40;99.90
19941;DHT22;10132;50.864;5.176;2023-04-19T12:22:07;20.30;99.90
19941;DHT22;10132;50.864;5.176;2023-04-19T12:24:09;20.30;99.90
19941;DHT22;10132;50.864;5.176;2023-04-19T12:26:11;20.10;99.90
19941;DHT22;10132;50.864;5.176;2023-04-19T12:28:14;20.30;99.90
19941;DHT22;10132;50.864;5.176;2023-04-19T12:30:18;20.40;99.90
19941;DHT22;10132;50.864;5.176;2023-04-19T12:32:19;20.60;98.50
19941;DHT22;10132;50.864;5.176;2023-04-19T12:34:21;20.80;99.40
19941;DHT22;10132;50.864;5.176;2023-04-19T12:36:24;20.50;97.00
19941;DHT22;10132;50.864;5.176;2023-04-19T12:38:26;20.70;98.70
19941;DHT22;10132;50.864;5.176;2023-04-19T12:40:28;20.90;98.20
19941;DHT22;10132;50.864;5.176;2023-04-19T12:42:30;20.50;96.90
19941;DHT22;10132;50.864;5.176;2023-04-19T12:44:32;20.20;99.90
19941;DHT22;10132;50.864;5.176;2023-04-19T12:46:36;20.50;99.80
19941;DHT22;10132;50.864;5.176;2023-04-19T12:48:37;20.90;97.10
19941;DHT22;10132;50.864;5.176;2023-04-19T12:50:39;21.20;92.30
19941;DHT22;10132;50.864;5.176;2023-04-19T12:52:43;21.30;96.40
19941;DHT22;10132;50.864;5.176;2023-04-19T12:54:45;21.20;92.90
19941;DHT22;10132;50.864;5.176;2023-04-19T12:56:47;21.00;93.30
19941;DHT22;10132;50.864;5.176;2023-04-19T12:58:48;20.80;93.80